createdAt,value
2022-10-23T00:00:24.634Z,99609.13
2022-10-23T00:03:27.439Z,99609.97
2022-10-23T00:06:30.723Z,99604.22
2022-10-23T00:09:33.400Z,99594.41
2022-10-23T00:12:36.122Z,99602.81
2022-10-23T00:15:40.211Z,99594.69
2022-10-23T00:18:42.932Z,99590.31
2022-10-23T00:21:45.701Z,99590.19
2022-10-23T00:24:48.345Z,99586.13
2022-10-23T00:27:51.049Z,99576.44
2022-10-23T00:30:55.126Z,99558.78
2022-10-23T00:33:57.849Z,99558.34
2022-10-23T00:37:00.537Z,99559.34
2022-10-23T00:40:03.271Z,99558.50
2022-10-23T00:43:06.405Z,99546.69
2022-10-23T00:46:10.461Z,99539.53
2022-10-23T00:49:13.687Z,99532.38
2022-10-23T00:52:17.416Z,99522.56
2022-10-23T00:55:21.592Z,99521.44
2022-10-23T00:58:24.223Z,99509.78
2022-10-23T01:01:28.407Z,99503.31
2022-10-23T01:04:31.424Z,99501.94
2022-10-23T01:07:37.700Z,99508.53
2022-10-23T01:10:44.080Z,99500.00
2022-10-23T01:13:50.835Z,99504.19
2022-10-23T01:17:01.339Z,99506.03
2022-10-23T01:20:12.229Z,99510.22
2022-10-23T01:23:39.032Z,99506.84
2022-10-23T01:26:51.650Z,99495.88
2022-10-23T01:30:00.408Z,99486.09
2022-10-23T01:33:06.797Z,99493.94
2022-10-23T01:36:12.342Z,99492.25
2022-10-23T01:39:17.420Z,99486.94
2022-10-23T01:42:22.913Z,99485.22
2022-10-23T01:45:29.823Z,99480.75
2022-10-23T01:48:35.309Z,99479.19
2022-10-23T01:51:39.753Z,99481.88
2022-10-23T01:54:46.716Z,99475.44
2022-10-23T01:57:50.872Z,99472.03
2022-10-23T02:00:58.338Z,99476.53
2022-10-23T02:04:04.320Z,99467.69
2022-10-23T02:07:07.178Z,99477.38
2022-10-23T02:10:10.890Z,99475.28
2022-10-23T02:13:17.720Z,99463.88
2022-10-23T02:16:25.164Z,99465.72
2022-10-23T02:19:31.060Z,99469.22
2022-10-23T02:22:36.983Z,99464.75
2022-10-23T02:25:44.472Z,99464.75
2022-10-23T02:28:50.787Z,99461.22
2022-10-23T02:31:54.927Z,99462.38
2022-10-23T02:34:57.969Z,99466.03
2022-10-23T02:38:01.826Z,99459.69
2022-10-23T02:41:22.268Z,99456.88
2022-10-23T02:44:33.463Z,99450.03
2022-10-23T02:47:42.292Z,99437.69
2022-10-23T02:50:50.210Z,99430.38
2022-10-23T02:57:07.290Z,99425.19
2022-10-23T03:00:12.134Z,99430.38
2022-10-23T03:03:18.468Z,99434.19
2022-10-23T03:06:21.629Z,99430.22
2022-10-23T03:09:24.553Z,99423.38
2022-10-23T03:12:27.339Z,99427.72
2022-10-23T03:15:30.130Z,99431.06
2022-10-23T03:18:34.288Z,99426.88
2022-10-23T03:21:37.043Z,99409.19
2022-10-23T03:24:39.797Z,99431.50
2022-10-23T03:27:42.675Z,99420.53
2022-10-23T03:30:45.367Z,99418.56
2022-10-23T03:33:49.540Z,99409.88
2022-10-23T03:36:52.284Z,99408.06
2022-10-23T03:39:55.086Z,99409.72
2022-10-23T03:42:57.879Z,99413.53
2022-10-23T03:46:01.256Z,99414.22
2022-10-23T03:49:05.866Z,99394.88
2022-10-23T03:52:09.207Z,99407.22
2022-10-23T03:55:12.208Z,99407.06
2022-10-23T03:58:15.011Z,99405.22
2022-10-23T04:01:17.844Z,99399.38
2022-10-23T04:04:22.042Z,99398.97
2022-10-23T04:07:24.785Z,99396.28
2022-10-23T04:10:27.542Z,99407.13
2022-10-23T04:13:30.360Z,99392.63
2022-10-23T04:16:33.153Z,99393.63
2022-10-23T04:19:37.330Z,99386.94
2022-10-23T04:22:40.317Z,99388.59
2022-10-23T04:25:43.363Z,99378.47
2022-10-23T04:28:46.136Z,99379.63
2022-10-23T04:31:48.896Z,99377.09
2022-10-23T04:34:53.086Z,99374.44
2022-10-23T04:37:55.829Z,99373.44
2022-10-23T04:40:58.626Z,99375.44
2022-10-23T04:44:02.454Z,99360.56
2022-10-23T04:47:05.265Z,99366.44
2022-10-23T04:50:09.533Z,99365.03
2022-10-23T04:53:12.312Z,99363.53
2022-10-23T04:56:15.879Z,99374.03
2022-10-23T04:59:18.587Z,99359.88
2022-10-23T05:02:21.417Z,99357.88
2022-10-23T05:05:25.548Z,99367.56
2022-10-23T05:08:28.291Z,99367.44
2022-10-23T05:11:31.085Z,99365.19
2022-10-23T05:14:33.863Z,99375.72
2022-10-23T05:17:38.001Z,99366.72
2022-10-23T05:20:43.170Z,99367.72
2022-10-23T05:23:46.819Z,99373.88
2022-10-23T05:26:51.708Z,99359.03
2022-10-23T05:29:54.472Z,99360.28
2022-10-23T05:32:57.280Z,99361.28
2022-10-23T05:36:01.922Z,99363.28
2022-10-23T05:39:05.587Z,99361.28
2022-10-23T05:42:08.622Z,99364.63
2022-10-23T05:45:11.849Z,99364.06
2022-10-23T05:48:29.825Z,99367.13
2022-10-23T05:51:39.613Z,99367.81
2022-10-23T05:54:43.383Z,99360.53
2022-10-23T05:57:46.470Z,99355.63
2022-10-23T06:00:49.510Z,99346.09
2022-10-23T06:03:52.298Z,99338.78
2022-10-23T06:06:56.454Z,99345.78
2022-10-23T06:09:59.277Z,99352.41
2022-10-23T06:13:02.029Z,99341.06
2022-10-23T06:16:11.109Z,99348.06
2022-10-23T06:19:14.081Z,99343.81
2022-10-23T06:25:25.882Z,99336.53
2022-10-23T06:28:28.967Z,99334.81
2022-10-23T06:31:31.837Z,99337.50
2022-10-23T06:34:34.884Z,99332.88
2022-10-23T06:37:39.831Z,99336.81
2022-10-23T06:40:42.644Z,99330.47
2022-10-23T06:43:45.804Z,99326.00
2022-10-23T06:46:48.555Z,99317.16
2022-10-23T06:49:51.222Z,99318.72
2022-10-23T06:52:56.347Z,99316.38
2022-10-23T06:56:00.643Z,99297.13
2022-10-23T06:59:03.487Z,99302.00
2022-10-23T07:02:08.247Z,99301.72
2022-10-23T07:05:13.547Z,99299.03
2022-10-23T07:08:18.753Z,99296.38
2022-10-23T07:11:21.527Z,99295.53
2022-10-23T07:14:24.316Z,99289.50
2022-10-23T07:17:27.189Z,99303.53
2022-10-23T07:20:30.237Z,99290.22
2022-10-23T07:23:34.556Z,99284.47
2022-10-23T07:26:37.467Z,99279.22
2022-10-23T07:29:40.350Z,99287.22
2022-10-23T07:32:43.454Z,99277.25
2022-10-23T07:35:47.457Z,99274.28
2022-10-23T07:38:51.824Z,99268.97
2022-10-23T07:41:54.654Z,99277.03
2022-10-23T07:44:57.555Z,99266.22
2022-10-23T07:48:00.378Z,99272.06
2022-10-23T07:51:08.248Z,99273.47
2022-10-23T07:54:13.227Z,99266.47
2022-10-23T07:57:16.551Z,99261.88
2022-10-23T08:00:19.512Z,99270.84
2022-10-23T08:03:22.392Z,99264.06
2022-10-23T08:06:25.335Z,99263.22
2022-10-23T08:09:29.539Z,99262.78
2022-10-23T08:12:32.478Z,99258.13
2022-10-23T08:15:35.268Z,99260.28
2022-10-23T08:18:41.232Z,99255.06
2022-10-23T08:21:44.090Z,99261.13
2022-10-23T08:24:48.305Z,99256.78
2022-10-23T08:27:52.211Z,99264.91
2022-10-23T08:30:55.479Z,99260.28
2022-10-23T08:33:58.456Z,99264.47
2022-10-23T08:37:01.382Z,99262.94
2022-10-23T08:40:05.970Z,99262.94
2022-10-23T08:43:14.558Z,99263.63
2022-10-23T08:46:19.243Z,99265.47
2022-10-23T08:49:27.510Z,99259.97
2022-10-23T08:52:33.270Z,99252.28
2022-10-23T08:55:39.398Z,99255.63
2022-10-23T08:58:46.270Z,99246.78
2022-10-23T09:01:52.408Z,99247.09
2022-10-23T09:04:56.591Z,99240.78
2022-10-23T09:08:08.857Z,99242.13
2022-10-23T09:11:17.488Z,99235.97
2022-10-23T09:14:36.035Z,99235.66
2022-10-23T09:17:41.315Z,99227.38
2022-10-23T09:20:45.851Z,99226.75
2022-10-23T09:23:48.996Z,99223.63
2022-10-23T09:26:54.333Z,99222.47
2022-10-23T09:29:59.425Z,99211.66
2022-10-23T09:33:02.723Z,99218.13
2022-10-23T09:36:07.227Z,99207.31
2022-10-23T09:39:22.120Z,99202.81
2022-10-23T09:42:27.249Z,99207.19
2022-10-23T09:45:31.489Z,99198.88
2022-10-23T09:48:35.206Z,99193.09
2022-10-23T09:51:41.883Z,99192.03
2022-10-23T09:54:46.121Z,99182.63
2022-10-23T09:57:50.708Z,99184.22
2022-10-23T10:00:55.882Z,99172.09
2022-10-23T10:03:58.685Z,99175.44
2022-10-23T10:07:02.897Z,99169.16
2022-10-23T10:10:08.850Z,99165.31
2022-10-23T10:13:23.673Z,99156.84
2022-10-23T10:16:33.892Z,99150.03
2022-10-23T10:19:45.287Z,99147.88
2022-10-23T10:22:51.302Z,99142.22
2022-10-23T10:26:00.618Z,99142.94
2022-10-23T10:29:21.346Z,99133.63
2022-10-23T10:32:32.251Z,99124.41
2022-10-23T10:35:39.131Z,99121.09
2022-10-23T10:38:45.890Z,99109.41
2022-10-23T10:41:54.357Z,99104.75
2022-10-23T10:45:12.941Z,99101.25
2022-10-23T10:48:34.153Z,99089.91
2022-10-23T10:51:40.144Z,99087.09
2022-10-23T10:54:50.448Z,99081.38
2022-10-23T10:57:59.864Z,99075.22
2022-10-23T11:01:12.197Z,99081.56
2022-10-23T11:04:19.470Z,99076.38
2022-10-23T11:07:25.769Z,99068.53
2022-10-23T11:10:29.445Z,99059.84
2022-10-23T11:13:35.627Z,99055.50
2022-10-23T11:16:42.443Z,99061.53
2022-10-23T11:19:48.588Z,99056.81
2022-10-23T11:22:55.339Z,99047.78
2022-10-23T11:26:03.922Z,99041.63
2022-10-23T11:29:28.059Z,99035.00
2022-10-23T11:32:43.895Z,99032.16
2022-10-23T11:35:52.801Z,99024.53
2022-10-23T11:38:59.312Z,99029.22
2022-10-23T11:42:13.664Z,99019.28
2022-10-23T11:45:29.993Z,99022.66
2022-10-23T11:48:45.046Z,99015.00
2022-10-23T11:51:50.616Z,99009.78
2022-10-23T11:55:02.042Z,99012.50
2022-10-23T11:58:22.459Z,99007.16
2022-10-23T12:01:37.504Z,99009.34
2022-10-23T12:04:47.626Z,99010.34
2022-10-23T12:07:55.719Z,99002.81
2022-10-23T12:10:58.764Z,99012.50
2022-10-23T12:14:01.733Z,99013.03
2022-10-23T12:17:20.112Z,99004.34
2022-10-23T12:20:28.336Z,99003.34
2022-10-23T12:23:47.380Z,99004.16
2022-10-23T12:27:09.559Z,99000.31
2022-10-23T12:30:23.002Z,98995.25
2022-10-23T12:33:29.655Z,98997.25
2022-10-23T12:36:41.385Z,98990.81
2022-10-23T12:39:44.228Z,98991.09
2022-10-23T12:42:51.450Z,98993.09
2022-10-23T12:45:55.703Z,98991.44
2022-10-23T12:48:59.368Z,98993.28
2022-10-23T12:52:06.147Z,98988.25
2022-10-23T12:55:14.789Z,98974.06
2022-10-23T12:58:21.180Z,98983.91
2022-10-23T13:01:25.364Z,98989.75
2022-10-23T13:04:30.739Z,98991.44
2022-10-23T13:07:36.898Z,98985.75
2022-10-23T13:10:40.064Z,98975.38
2022-10-23T13:13:43.110Z,98976.38
2022-10-23T13:16:46.211Z,98973.69
2022-10-23T13:19:49.185Z,98974.53
2022-10-23T13:22:59.433Z,98967.53
2022-10-23T13:26:04.561Z,98956.03
2022-10-23T13:29:18.713Z,98962.38
2022-10-23T13:32:24.582Z,98957.38
2022-10-23T13:35:27.830Z,98955.34
2022-10-23T13:38:34.538Z,98963.06
2022-10-23T13:41:39.384Z,98952.53
2022-10-23T13:44:42.496Z,98953.69
2022-10-23T13:47:45.674Z,98955.84
2022-10-23T13:50:48.659Z,98953.22
2022-10-23T13:53:53.113Z,98949.53
2022-10-23T13:56:56.284Z,98947.88
2022-10-23T13:59:59.160Z,98947.03
2022-10-23T14:03:02.011Z,98939.69
2022-10-23T14:06:05.045Z,98944.38
2022-10-23T14:09:10.326Z,98944.38
2022-10-23T14:12:13.744Z,98947.69
2022-10-23T14:15:16.917Z,98946.69
2022-10-23T14:18:20.025Z,98948.34
2022-10-23T14:21:23.460Z,98949.03
2022-10-23T14:24:27.847Z,98946.34
2022-10-23T14:27:31.191Z,98948.34
2022-10-23T14:30:34.158Z,98938.34
2022-10-23T14:33:37.211Z,98943.53
2022-10-23T14:36:49.706Z,98941.84
2022-10-23T14:39:58.383Z,98941.53
2022-10-23T14:43:01.206Z,98939.88
2022-10-23T14:46:09.209Z,98945.53
2022-10-23T14:49:12.295Z,98932.03
2022-10-23T14:52:15.170Z,98938.03
2022-10-23T14:55:19.521Z,98936.84
2022-10-23T14:58:24.352Z,98938.84
2022-10-23T15:01:29.922Z,98935.00
2022-10-23T15:04:33.090Z,98938.66
2022-10-23T15:07:36.180Z,98932.31
2022-10-23T15:10:41.471Z,98926.28
2022-10-23T15:13:44.739Z,98921.78
2022-10-23T15:16:49.829Z,98930.63
2022-10-23T15:19:53.008Z,98930.31
2022-10-23T15:22:57.043Z,98928.47
2022-10-23T15:26:02.744Z,98932.31
2022-10-23T15:29:05.672Z,98928.31
2022-10-23T15:32:10.502Z,98931.13
2022-10-23T15:35:15.527Z,98932.31
2022-10-23T15:38:19.796Z,98927.94
2022-10-23T15:41:30.451Z,98930.47
2022-10-23T15:44:39.180Z,98925.28
2022-10-23T15:47:43.341Z,98927.94
2022-10-23T15:50:46.613Z,98925.28
2022-10-23T15:53:49.765Z,98929.66
2022-10-23T15:57:10.908Z,98932.31
2022-10-23T16:00:18.319Z,98923.13
2022-10-23T16:03:27.872Z,98929.13
2022-10-23T16:06:31.713Z,98933.63
2022-10-23T16:09:37.395Z,98934.47
2022-10-23T16:25:13.401Z,98926.47
2022-10-23T16:28:23.268Z,98924.81
2022-10-23T16:31:26.733Z,98927.31
2022-10-23T16:34:34.536Z,98920.28
2022-10-23T16:37:40.061Z,98924.13
2022-10-23T16:40:51.372Z,98925.16
2022-10-23T16:43:54.221Z,98922.66
2022-10-23T16:46:57.430Z,98921.66
2022-10-23T16:50:05.681Z,98923.47
2022-10-23T16:53:09.887Z,98917.31
2022-10-23T16:56:15.826Z,98912.31
2022-10-23T16:59:19.002Z,98918.97
2022-10-23T17:02:25.546Z,98922.31
2022-10-23T17:05:29.837Z,98915.31
2022-10-23T17:08:33.572Z,98919.66
2022-10-23T17:11:40.178Z,98907.97
2022-10-23T17:14:43.822Z,98907.13
2022-10-23T17:17:49.465Z,98916.97
2022-10-23T17:20:58.782Z,98918.16
2022-10-23T17:27:21.742Z,98905.28
2022-10-23T17:34:46.686Z,98908.97
2022-10-23T17:37:50.551Z,98902.97
2022-10-23T17:40:53.328Z,98894.59
2022-10-23T17:43:58.685Z,98902.44
2022-10-23T17:47:01.468Z,98894.44
2022-10-23T17:50:04.273Z,98896.78
2022-10-23T17:53:07.086Z,98902.97
2022-10-23T17:56:10.872Z,98901.31
2022-10-23T17:59:16.341Z,98893.94
2022-10-23T18:02:19.260Z,98898.47
2022-10-23T18:05:23.354Z,98901.97
2022-10-23T18:08:25.985Z,98894.59
2022-10-23T18:11:30.477Z,98893.63
2022-10-23T18:14:37.563Z,98890.97
2022-10-23T18:17:40.520Z,98888.13
2022-10-23T18:20:43.639Z,98890.97
2022-10-23T18:23:46.773Z,98895.13
2022-10-23T18:26:49.698Z,98892.63
2022-10-23T18:29:54.211Z,98889.97
2022-10-23T18:32:58.323Z,98889.28
2022-10-23T18:36:01.124Z,98889.97
2022-10-23T18:39:05.787Z,98895.31
2022-10-23T18:42:08.628Z,98889.97
2022-10-23T18:45:15.239Z,98887.28
2022-10-23T18:48:17.883Z,98881.25
2022-10-23T18:51:24.968Z,98898.97
2022-10-23T18:54:27.809Z,98899.28
2022-10-23T18:57:30.704Z,98898.47
2022-10-23T19:00:34.894Z,98902.13
2022-10-23T19:03:37.660Z,98898.09
2022-10-23T19:06:40.458Z,98904.28
2022-10-23T19:09:43.651Z,98892.59
2022-10-23T19:12:47.320Z,98892.78
2022-10-23T19:15:51.563Z,98888.13
2022-10-23T19:18:55.796Z,98892.78
2022-10-23T19:21:58.910Z,98902.31
2022-10-23T19:25:04.813Z,98890.44
2022-10-23T19:28:07.656Z,98902.13
2022-10-23T19:31:12.462Z,98906.47
2022-10-23T19:34:15.199Z,98904.13
2022-10-23T19:37:17.953Z,98905.13
2022-10-23T19:40:24.200Z,98907.97
2022-10-23T19:43:29.230Z,98897.63
2022-10-23T19:46:35.800Z,98906.78
2022-10-23T19:49:38.681Z,98900.59
2022-10-23T19:52:42.274Z,98903.44
2022-10-23T19:55:45.079Z,98898.09
2022-10-23T19:58:47.865Z,98903.78
2022-10-23T20:01:52.051Z,98902.63
2022-10-23T20:05:13.527Z,98903.59
2022-10-23T20:08:16.423Z,98907.59
2022-10-23T20:11:20.881Z,98905.94
2022-10-23T20:14:23.674Z,98898.09
2022-10-23T20:17:27.901Z,98904.44
2022-10-23T20:20:30.627Z,98899.94
2022-10-23T20:23:33.436Z,98902.59
2022-10-23T20:26:36.971Z,98906.25
2022-10-23T20:29:39.839Z,98904.91
2022-10-23T20:32:44.260Z,98908.75
2022-10-23T20:35:47.126Z,98903.91
2022-10-23T20:38:49.985Z,98910.59
2022-10-23T20:50:08.602Z,98903.50
2022-10-23T20:53:11.269Z,98904.00
2022-10-23T20:56:15.072Z,98903.31
2022-10-23T20:59:19.004Z,98904.16
2022-10-23T21:02:21.765Z,98906.81
2022-10-23T21:05:25.821Z,98894.66
2022-10-23T21:08:28.478Z,98899.16
2022-10-23T21:11:31.619Z,98904.81
2022-10-23T21:14:34.352Z,98903.13
2022-10-23T21:17:39.054Z,98910.31
2022-10-23T21:20:43.154Z,98916.78
2022-10-23T21:23:46.516Z,98912.44
2022-10-23T21:26:49.178Z,98917.91
2022-10-23T21:29:51.863Z,98910.06
2022-10-23T21:32:54.621Z,98904.25
2022-10-23T21:36:12.798Z,98913.91
2022-10-23T21:39:16.559Z,98916.56
2022-10-23T21:42:19.364Z,98914.91
2022-10-23T21:45:22.151Z,98913.38
2022-10-23T21:48:24.864Z,98911.88
2022-10-23T21:51:30.287Z,98906.72
2022-10-23T21:54:33.038Z,98914.84
2022-10-23T21:57:35.694Z,98918.34
2022-10-23T22:00:38.333Z,98918.34
2022-10-23T22:03:41.067Z,98925.84
2022-10-23T22:06:45.548Z,98915.34
2022-10-23T22:09:48.232Z,98926.00
2022-10-23T22:12:50.952Z,98922.66
2022-10-23T22:15:53.607Z,98921.31
2022-10-23T22:18:56.334Z,98924.97
2022-10-23T22:22:00.407Z,98927.94
2022-10-23T22:25:03.137Z,98934.09
2022-10-23T22:28:05.838Z,98936.44
2022-10-23T22:31:15.219Z,98939.94
2022-10-23T22:34:27.193Z,98944.44
2022-10-23T22:37:38.172Z,98949.88
2022-10-23T22:40:45.648Z,98948.22
2022-10-23T22:43:49.235Z,98955.38
2022-10-23T22:46:51.940Z,98959.72
2022-10-23T22:49:54.622Z,98963.53
2022-10-23T22:52:58.621Z,98971.44
2022-10-23T22:56:01.356Z,98967.72
2022-10-23T22:59:04.118Z,98972.38
2022-10-23T23:02:06.774Z,98978.25
2022-10-23T23:05:11.118Z,98970.72
2022-10-23T23:08:15.658Z,98981.38
2022-10-23T23:11:22.197Z,98986.16
2022-10-23T23:14:24.875Z,98987.88
2022-10-23T23:17:27.560Z,98988.81
2022-10-23T23:20:30.271Z,98991.50
2022-10-23T23:23:35.555Z,98994.16
2022-10-23T23:26:38.340Z,99002.97
2022-10-23T23:29:41.052Z,98996.31
2022-10-23T23:32:43.974Z,99003.47
2022-10-23T23:35:47.835Z,99005.31
2022-10-23T23:38:51.941Z,99008.81
2022-10-23T23:41:54.707Z,99008.59
2022-10-23T23:45:10.098Z,99006.44
2022-10-23T23:48:16.127Z,99003.75
2022-10-23T23:51:20.029Z,99014.75
2022-10-23T23:54:24.228Z,99005.09
2022-10-23T23:57:27.088Z,99015.75
